TimeADT,TemperatureF,Dew PointF,Humidity,Sea Level PressureIn,VisibilityMPH,Wind Direction,Wind SpeedMPH,Gust SpeedMPH,PrecipitationIn,Events,Conditions,WindDirDegrees,DateUTC
12:00 AM,65.1,63.3,94,-9999,-9999.0,North,-9999.0,-,N/A,,Unknown,0,2013-07-06 03:00:00
1:00 AM,66.7,63.9,90,-9999,-9999.0,North,-9999.0,-,N/A,,Unknown,0,2013-07-06 04:00:00
2:00 AM,69.8,63.1,79,-9999,-9999.0,North,-9999.0,-,N/A,,Unknown,0,2013-07-06 05:00:00
3:00 AM,70.3,63.5,79,-9999,-9999.0,North,-9999.0,-,N/A,,Unknown,0,2013-07-06 06:00:00
4:00 AM,69.4,63.3,81,-9999,-9999.0,North,-9999.0,-,N/A,,Unknown,0,2013-07-06 07:00:00
5:00 AM,66.2,62.6,88,-9999,-9999.0,North,-9999.0,-,N/A,,Unknown,0,2013-07-06 08:00:00
6:00 AM,62.6,61.0,94,-9999,-9999.0,North,-9999.0,-,N/A,,Unknown,0,2013-07-06 09:00:00
7:00 AM,70.2,65.1,84,-9999,-9999.0,North,-9999.0,-,N/A,,Unknown,0,2013-07-06 10:00:00
8:00 AM,75.2,66.9,75,-9999,-9999.0,North,-9999.0,-,N/A,,Unknown,0,2013-07-06 11:00:00
9:00 AM,80.1,68.0,67,-9999,-9999.0,North,-9999.0,-,N/A,,Unknown,0,2013-07-06 12:00:00
10:00 AM,82.2,66.2,58,-9999,-9999.0,North,-9999.0,-,N/A,,Unknown,0,2013-07-06 13:00:00
11:00 AM,86.5,67.1,52,-9999,-9999.0,North,-9999.0,-,N/A,,Unknown,0,2013-07-06 14:00:00
12:00 PM,87.4,65.7,48,-9999,-9999.0,North,-9999.0,-,N/A,,Unknown,0,2013-07-06 15:00:00
1:00 PM,87.1,63.9,46,-9999,-9999.0,North,-9999.0,-,N/A,,Unknown,0,2013-07-06 16:00:00
2:00 PM,89.2,65.8,46,-9999,-9999.0,North,-9999.0,-,N/A,,Unknown,0,2013-07-06 17:00:00
3:00 PM,90.0,64.8,43,-9999,-9999.0,North,-9999.0,-,N/A,,Unknown,0,2013-07-06 18:00:00
4:00 PM,89.1,57.9,35,-9999,-9999.0,North,-9999.0,-,N/A,,Unknown,0,2013-07-06 19:00:00
5:00 PM,89.4,58.6,35,-9999,-9999.0,North,-9999.0,-,N/A,,Unknown,0,2013-07-06 20:00:00
6:00 PM,85.8,62.2,45,-9999,-9999.0,North,-9999.0,-,N/A,,Unknown,0,2013-07-06 21:00:00
7:00 PM,83.7,64.2,52,-9999,-9999.0,North,-9999.0,-,N/A,,Unknown,0,2013-07-06 22:00:00
8:00 PM,80.2,64.6,59,-9999,-9999.0,North,-9999.0,-,N/A,,Unknown,0,2013-07-06 23:00:00
9:00 PM,78.1,66.9,68,-9999,-9999.0,North,-9999.0,-,N/A,,Unknown,0,2013-07-07 00:00:00
10:00 PM,75.2,68.2,79,-9999,-9999.0,North,-9999.0,-,N/A,,Unknown,0,2013-07-07 01:00:00
11:00 PM,71.4,67.5,87,-9999,-9999.0,North,-9999.0,-,N/A,,Unknown,0,2013-07-07 02:00:00